sensor_id;sensor_type;location;lat;lon;timestamp;P1;durP1;ratioP1;P2;durP2;ratioP2
41514;SDS011;27247;48.020;16.720;2023-04-01T00:02:34;2.75;;;0.90;;
41514;SDS011;27247;48.020;16.720;2023-04-01T00:06:44;3.17;;;0.93;;
41514;SDS011;27247;48.020;16.720;2023-04-01T00:10:55;3.22;;;0.50;;
41514;SDS011;27247;48.020;16.720;2023-04-01T00:15:07;4.68;;;0.60;;
41514;SDS011;27247;48.020;16.720;2023-04-01T00:19:20;1.25;;;0.40;;
41514;SDS011;27247;48.020;16.720;2023-04-01T00:23:30;2.17;;;0.60;;
41514;SDS011;27247;48.020;16.720;2023-04-01T00:27:41;2.80;;;0.70;;
41514;SDS011;27247;48.020;16.720;2023-04-01T00:31:51;2.53;;;0.70;;
41514;SDS011;27247;48.020;16.720;2023-04-01T00:36:14;2.37;;;0.80;;
41514;SDS011;27247;48.020;16.720;2023-04-01T00:40:28;2.05;;;0.70;;
41514;SDS011;27247;48.020;16.720;2023-04-01T00:44:40;1.95;;;0.60;;
41514;SDS011;27247;48.020;16.720;2023-04-01T00:48:51;1.30;;;0.88;;
41514;SDS011;27247;48.020;16.720;2023-04-01T00:53:03;2.95;;;0.68;;
41514;SDS011;27247;48.020;16.720;2023-04-01T00:57:19;2.65;;;0.52;;
41514;SDS011;27247;48.020;16.720;2023-04-01T01:01:35;2.60;;;0.82;;
41514;SDS011;27247;48.020;16.720;2023-04-01T01:05:51;1.30;;;0.70;;
41514;SDS011;27247;48.020;16.720;2023-04-01T01:10:28;2.10;;;0.50;;
41514;SDS011;27247;48.020;16.720;2023-04-01T01:14:45;4.05;;;0.63;;
41514;SDS011;27247;48.020;16.720;2023-04-01T01:19:43;1.52;;;0.57;;
41514;SDS011;27247;48.020;16.720;2023-04-01T01:32:59;4.55;;;0.80;;
41514;SDS011;27247;48.020;16.720;2023-04-01T01:37:16;2.75;;;0.60;;
41514;SDS011;27247;48.020;16.720;2023-04-01T01:41:29;1.52;;;0.60;;
41514;SDS011;27247;48.020;16.720;2023-04-01T01:45:43;2.28;;;0.85;;
41514;SDS011;27247;48.020;16.720;2023-04-01T01:49:58;3.22;;;0.70;;
41514;SDS011;27247;48.020;16.720;2023-04-01T01:54:11;4.18;;;0.82;;
41514;SDS011;27247;48.020;16.720;2023-04-01T01:58:25;1.60;;;0.60;;
41514;SDS011;27247;48.020;16.720;2023-04-01T02:02:40;1.75;;;0.70;;
41514;SDS011;27247;48.020;16.720;2023-04-01T02:07:01;2.78;;;0.60;;
41514;SDS011;27247;48.020;16.720;2023-04-01T02:11:17;3.45;;;0.57;;
41514;SDS011;27247;48.020;16.720;2023-04-01T02:15:30;3.42;;;0.82;;
41514;SDS011;27247;48.020;16.720;2023-04-01T02:19:51;2.30;;;0.60;;
41514;SDS011;27247;48.020;16.720;2023-04-01T02:24:08;5.50;;;0.70;;
41514;SDS011;27247;48.020;16.720;2023-04-01T02:28:22;6.05;;;1.00;;
41514;SDS011;27247;48.020;16.720;2023-04-01T02:32:34;4.30;;;1.00;;
41514;SDS011;27247;48.020;16.720;2023-04-01T02:36:48;3.95;;;1.63;;
41514;SDS011;27247;48.020;16.720;2023-04-01T02:41:00;4.63;;;1.35;;
41514;SDS011;27247;48.020;16.720;2023-04-01T02:45:12;4.88;;;1.00;;
41514;SDS011;27247;48.020;16.720;2023-04-01T02:49:23;5.05;;;1.05;;
41514;SDS011;27247;48.020;16.720;2023-04-01T02:53:34;3.92;;;0.70;;
41514;SDS011;27247;48.020;16.720;2023-04-01T02:57:44;6.88;;;1.05;;
41514;SDS011;27247;48.020;16.720;2023-04-01T03:01:54;1.67;;;0.68;;
41514;SDS011;27247;48.020;16.720;2023-04-01T03:06:09;4.38;;;0.73;;
41514;SDS011;27247;48.020;16.720;2023-04-01T03:10:21;4.10;;;0.95;;
41514;SDS011;27247;48.020;16.720;2023-04-01T03:14:32;5.63;;;1.13;;
41514;SDS011;27247;48.020;16.720;2023-04-01T03:18:42;3.35;;;0.90;;
41514;SDS011;27247;48.020;16.720;2023-04-01T03:22:53;3.75;;;0.77;;
41514;SDS011;27247;48.020;16.720;2023-04-01T03:27:03;3.65;;;0.90;;
41514;SDS011;27247;48.020;16.720;2023-04-01T03:31:14;6.78;;;0.80;;
41514;SDS011;27247;48.020;16.720;2023-04-01T03:35:26;3.70;;;0.80;;
41514;SDS011;27247;48.020;16.720;2023-04-01T03:39:36;4.38;;;1.45;;
41514;SDS011;27247;48.020;16.720;2023-04-01T03:43:47;3.20;;;0.80;;
41514;SDS011;27247;48.020;16.720;2023-04-01T03:47:57;3.28;;;0.90;;
41514;SDS011;27247;48.020;16.720;2023-04-01T03:52:08;3.13;;;0.75;;
41514;SDS011;27247;48.020;16.720;2023-04-01T03:56:20;5.55;;;2.78;;
41514;SDS011;27247;48.020;16.720;2023-04-01T04:00:31;8.77;;;5.20;;
41514;SDS011;27247;48.020;16.720;2023-04-01T04:04:41;18.30;;;9.85;;
41514;SDS011;27247;48.020;16.720;2023-04-01T04:08:52;65.97;;;27.35;;
41514;SDS011;27247;48.020;16.720;2023-04-01T04:13:03;20.08;;;9.55;;
41514;SDS011;27247;48.020;16.720;2023-04-01T04:17:13;3.80;;;2.47;;
41514;SDS011;27247;48.020;16.720;2023-04-01T04:21:26;6.15;;;1.33;;
41514;SDS011;27247;48.020;16.720;2023-04-01T04:25:36;5.95;;;2.13;;
41514;SDS011;27247;48.020;16.720;2023-04-01T04:29:46;3.10;;;1.00;;
41514;SDS011;27247;48.020;16.720;2023-04-01T04:33:58;3.10;;;0.63;;
41514;SDS011;27247;48.020;16.720;2023-04-01T04:38:10;13.82;;;5.63;;
41514;SDS011;27247;48.020;16.720;2023-04-01T04:42:21;15.52;;;5.35;;
41514;SDS011;27247;48.020;16.720;2023-04-01T04:46:31;19.63;;;6.97;;
41514;SDS011;27247;48.020;16.720;2023-04-01T04:50:42;9.85;;;4.60;;
41514;SDS011;27247;48.020;16.720;2023-04-01T04:54:52;1.58;;;0.70;;
41514;SDS011;27247;48.020;16.720;2023-04-01T04:59:03;4.82;;;1.30;;
41514;SDS011;27247;48.020;16.720;2023-04-01T05:03:13;2.58;;;0.80;;
41514;SDS011;27247;48.020;16.720;2023-04-01T05:07:24;2.33;;;0.60;;
41514;SDS011;27247;48.020;16.720;2023-04-01T05:11:34;2.22;;;0.70;;
41514;SDS011;27247;48.020;16.720;2023-04-01T05:15:45;4.95;;;1.02;;
41514;SDS011;27247;48.020;16.720;2023-04-01T05:19:55;3.60;;;1.60;;
41514;SDS011;27247;48.020;16.720;2023-04-01T05:24:09;2.45;;;0.63;;
41514;SDS011;27247;48.020;16.720;2023-04-01T05:28:20;2.78;;;1.10;;
41514;SDS011;27247;48.020;16.720;2023-04-01T05:32:30;3.05;;;0.90;;
41514;SDS011;27247;48.020;16.720;2023-04-01T05:36:42;2.67;;;0.80;;
41514;SDS011;27247;48.020;16.720;2023-04-01T05:40:58;3.28;;;0.32;;
41514;SDS011;27247;48.020;16.720;2023-04-01T05:45:09;1.33;;;0.60;;
41514;SDS011;27247;48.020;16.720;2023-04-01T05:49:20;2.88;;;0.68;;
41514;SDS011;27247;48.020;16.720;2023-04-01T05:53:30;2.55;;;1.10;;
41514;SDS011;27247;48.020;16.720;2023-04-01T05:57:41;6.20;;;1.27;;
41514;SDS011;27247;48.020;16.720;2023-04-01T06:01:51;0.95;;;0.50;;
41514;SDS011;27247;48.020;16.720;2023-04-01T06:06:02;2.65;;;0.70;;
41514;SDS011;27247;48.020;16.720;2023-04-01T06:10:17;1.02;;;0.32;;
41514;SDS011;27247;48.020;16.720;2023-04-01T06:14:38;1.27;;;0.40;;
41514;SDS011;27247;48.020;16.720;2023-04-01T06:18:52;1.38;;;0.47;;
41514;SDS011;27247;48.020;16.720;2023-04-01T06:23:34;2.92;;;0.40;;
41514;SDS011;27247;48.020;16.720;2023-04-01T06:55:41;3.50;;;1.30;;
41514;SDS011;27247;48.020;16.720;2023-04-01T06:59:57;1.88;;;0.95;;
41514;SDS011;27247;48.020;16.720;2023-04-01T07:04:11;2.67;;;0.93;;
41514;SDS011;27247;48.020;16.720;2023-04-01T07:08:36;2.47;;;1.08;;
41514;SDS011;27247;48.020;16.720;2023-04-01T07:12:54;7.20;;;1.13;;
41514;SDS011;27247;48.020;16.720;2023-04-01T07:17:09;1.98;;;0.75;;
41514;SDS011;27247;48.020;16.720;2023-04-01T07:21:26;3.05;;;0.88;;
41514;SDS011;27247;48.020;16.720;2023-04-01T07:25:41;3.88;;;0.80;;
41514;SDS011;27247;48.020;16.720;2023-04-01T07:29:56;1.23;;;0.93;;
41514;SDS011;27247;48.020;16.720;2023-04-01T07:34:17;1.20;;;0.65;;
41514;SDS011;27247;48.020;16.720;2023-04-01T07:42:53;6.57;;;0.70;;
41514;SDS011;27247;48.020;16.720;2023-04-01T07:57:19;4.45;;;0.70;;
41514;SDS011;27247;48.020;16.720;2023-04-01T08:10:23;2.55;;;0.82;;
41514;SDS011;27247;48.020;16.720;2023-04-01T08:14:53;1.77;;;0.70;;
41514;SDS011;27247;48.020;16.720;2023-04-01T08:19:43;2.03;;;1.40;;
41514;SDS011;27247;48.020;16.720;2023-04-01T08:24:23;3.88;;;1.10;;
41514;SDS011;27247;48.020;16.720;2023-04-01T08:28:44;3.50;;;1.40;;
41514;SDS011;27247;48.020;16.720;2023-04-01T08:33:05;2.15;;;1.05;;
41514;SDS011;27247;48.020;16.720;2023-04-01T08:37:25;4.72;;;1.00;;
41514;SDS011;27247;48.020;16.720;2023-04-01T08:41:49;1.08;;;0.73;;
41514;SDS011;27247;48.020;16.720;2023-04-01T09:08:48;0.88;;;0.50;;
41514;SDS011;27247;48.020;16.720;2023-04-01T09:13:23;1.85;;;0.80;;
41514;SDS011;27247;48.020;16.720;2023-04-01T09:22:10;1.85;;;0.73;;
41514;SDS011;27247;48.020;16.720;2023-04-01T09:40:35;1.25;;;0.77;;
41514;SDS011;27247;48.020;16.720;2023-04-01T10:31:09;2.03;;;0.40;;
41514;SDS011;27247;48.020;16.720;2023-04-01T10:35:38;0.90;;;0.60;;
41514;SDS011;27247;48.020;16.720;2023-04-01T10:44:11;0.52;;;0.40;;
41514;SDS011;27247;48.020;16.720;2023-04-01T11:11:25;0.43;;;0.43;;
41514;SDS011;27247;48.020;16.720;2023-04-01T11:38:09;1.30;;;0.30;;
41514;SDS011;27247;48.020;16.720;2023-04-01T11:42:57;1.25;;;0.45;;
41514;SDS011;27247;48.020;16.720;2023-04-01T11:56:14;0.20;;;0.20;;
41514;SDS011;27247;48.020;16.720;2023-04-01T12:14:41;1.73;;;0.40;;
41514;SDS011;27247;48.020;16.720;2023-04-01T12:19:09;3.08;;;0.30;;
41514;SDS011;27247;48.020;16.720;2023-04-01T12:28:10;0.10;;;0.10;;
41514;SDS011;27247;48.020;16.720;2023-04-01T12:32:40;0.32;;;0.10;;
41514;SDS011;27247;48.020;16.720;2023-04-01T12:37:18;2.03;;;0.20;;
41514;SDS011;27247;48.020;16.720;2023-04-01T12:41:57;0.30;;;0.20;;
41514;SDS011;27247;48.020;16.720;2023-04-01T13:18:02;0.93;;;0.30;;
41514;SDS011;27247;48.020;16.720;2023-04-01T13:22:34;0.10;;;0.10;;
41514;SDS011;27247;48.020;16.720;2023-04-01T13:26:57;0.60;;;0.30;;
41514;SDS011;27247;48.020;16.720;2023-04-01T13:31:20;0.73;;;0.30;;
41514;SDS011;27247;48.020;16.720;2023-04-01T13:44:56;1.00;;;0.30;;
41514;SDS011;27247;48.020;16.720;2023-04-01T13:54:06;2.33;;;0.40;;
41514;SDS011;27247;48.020;16.720;2023-04-01T14:02:50;1.27;;;0.40;;
41514;SDS011;27247;48.020;16.720;2023-04-01T14:20:52;1.08;;;0.40;;
41514;SDS011;27247;48.020;16.720;2023-04-01T14:34:32;1.48;;;0.40;;
41514;SDS011;27247;48.020;16.720;2023-04-01T14:52:32;0.60;;;0.20;;
41514;SDS011;27247;48.020;16.720;2023-04-01T15:09:59;0.75;;;0.30;;
41514;SDS011;27247;48.020;16.720;2023-04-01T15:14:38;1.10;;;0.40;;
41514;SDS011;27247;48.020;16.720;2023-04-01T15:28:19;0.52;;;0.20;;
41514;SDS011;27247;48.020;16.720;2023-04-01T15:41:26;2.25;;;1.02;;
41514;SDS011;27247;48.020;16.720;2023-04-01T16:22:04;1.80;;;0.40;;
41514;SDS011;27247;48.020;16.720;2023-04-01T16:31:06;1.58;;;0.47;;
41514;SDS011;27247;48.020;16.720;2023-04-01T16:39:41;0.98;;;0.38;;
41514;SDS011;27247;48.020;16.720;2023-04-01T16:43:59;0.70;;;0.50;;
41514;SDS011;27247;48.020;16.720;2023-04-01T16:48:44;0.10;;;0.10;;
41514;SDS011;27247;48.020;16.720;2023-04-01T16:57:17;0.30;;;0.30;;
41514;SDS011;27247;48.020;16.720;2023-04-01T17:01:40;0.70;;;0.20;;
41514;SDS011;27247;48.020;16.720;2023-04-01T17:28:29;0.10;;;0.10;;
41514;SDS011;27247;48.020;16.720;2023-04-01T17:33:00;0.13;;;0.13;;
41514;SDS011;27247;48.020;16.720;2023-04-01T17:37:21;0.55;;;0.30;;
41514;SDS011;27247;48.020;16.720;2023-04-01T17:41:43;0.30;;;0.30;;
41514;SDS011;27247;48.020;16.720;2023-04-01T17:46:09;0.60;;;0.13;;
41514;SDS011;27247;48.020;16.720;2023-04-01T17:50:53;0.55;;;0.30;;
41514;SDS011;27247;48.020;16.720;2023-04-01T18:18:17;0.35;;;0.17;;
41514;SDS011;27247;48.020;16.720;2023-04-01T18:27:36;0.73;;;0.50;;
41514;SDS011;27247;48.020;16.720;2023-04-01T18:31:26;0.40;;;0.38;;
41514;SDS011;27247;48.020;16.720;2023-04-01T18:35:53;0.40;;;0.30;;
41514;SDS011;27247;48.020;16.720;2023-04-01T18:40:28;0.30;;;0.30;;
41514;SDS011;27247;48.020;16.720;2023-04-01T18:44:51;0.32;;;0.30;;
41514;SDS011;27247;48.020;16.720;2023-04-01T19:07:02;0.52;;;0.40;;
41514;SDS011;27247;48.020;16.720;2023-04-01T19:11:59;0.60;;;0.60;;
41514;SDS011;27247;48.020;16.720;2023-04-01T19:21:26;0.95;;;0.50;;
41514;SDS011;27247;48.020;16.720;2023-04-01T19:25:57;0.60;;;0.60;;
41514;SDS011;27247;48.020;16.720;2023-04-01T19:30:17;0.82;;;0.50;;
41514;SDS011;27247;48.020;16.720;2023-04-01T19:52:48;0.95;;;0.30;;
41514;SDS011;27247;48.020;16.720;2023-04-01T20:10:58;0.77;;;0.47;;
41514;SDS011;27247;48.020;16.720;2023-04-01T20:15:23;0.20;;;0.20;;
41514;SDS011;27247;48.020;16.720;2023-04-01T20:20:31;0.32;;;0.30;;
41514;SDS011;27247;48.020;16.720;2023-04-01T20:24:20;0.20;;;0.20;;
41514;SDS011;27247;48.020;16.720;2023-04-01T20:37:16;1.25;;;0.17;;
41514;SDS011;27247;48.020;16.720;2023-04-01T20:46:20;0.43;;;0.20;;
41514;SDS011;27247;48.020;16.720;2023-04-01T21:07:46;0.80;;;0.30;;
41514;SDS011;27247;48.020;16.720;2023-04-01T21:21:25;2.30;;;0.77;;
41514;SDS011;27247;48.020;16.720;2023-04-01T21:34:44;0.30;;;0.30;;
41514;SDS011;27247;48.020;16.720;2023-04-01T21:52:30;1.60;;;0.30;;
41514;SDS011;27247;48.020;16.720;2023-04-01T22:05:34;0.50;;;0.50;;
41514;SDS011;27247;48.020;16.720;2023-04-01T22:09:48;0.30;;;0.30;;
41514;SDS011;27247;48.020;16.720;2023-04-01T22:18:31;0.73;;;0.40;;
41514;SDS011;27247;48.020;16.720;2023-04-01T22:27:46;0.52;;;0.43;;
41514;SDS011;27247;48.020;16.720;2023-04-01T22:32:07;0.95;;;0.43;;
41514;SDS011;27247;48.020;16.720;2023-04-01T22:36:31;0.50;;;0.50;;
41514;SDS011;27247;48.020;16.720;2023-04-01T22:40:45;0.40;;;0.40;;
41514;SDS011;27247;48.020;16.720;2023-04-01T22:49:45;0.45;;;0.40;;
41514;SDS011;27247;48.020;16.720;2023-04-01T22:54:07;1.52;;;0.50;;
41514;SDS011;27247;48.020;16.720;2023-04-01T22:58:28;0.30;;;0.30;;
41514;SDS011;27247;48.020;16.720;2023-04-01T23:07:19;0.55;;;0.50;;
41514;SDS011;27247;48.020;16.720;2023-04-01T23:11:44;0.60;;;0.30;;
41514;SDS011;27247;48.020;16.720;2023-04-01T23:16:01;0.47;;;0.47;;
41514;SDS011;27247;48.020;16.720;2023-04-01T23:29:53;0.30;;;0.30;;
41514;SDS011;27247;48.020;16.720;2023-04-01T23:38:24;1.25;;;0.52;;
41514;SDS011;27247;48.020;16.720;2023-04-01T23:42:39;0.68;;;0.30;;
41514;SDS011;27247;48.020;16.720;2023-04-01T23:46:50;0.30;;;0.30;;
41514;SDS011;27247;48.020;16.720;2023-04-01T23:51:02;1.38;;;0.40;;
41514;SDS011;27247;48.020;16.720;2023-04-01T23:55:25;1.48;;;0.38;;
41514;SDS011;27247;48.020;16.720;2023-04-01T23:59:40;0.45;;;0.45;;
